Time;durP1;ratioP1;P1;durP2;ratioP2;P2;SDS_P1;SDS_P2;PMS_P1;PMS_P2;Temp;Humidity;BMP_temperature;BMP_pressure;BME280_temperature;BME280_humidity;BME280_pressure;Samples;Min_cycle;Max_cycle;Signal;HPM_P1;HPM_P2
2024/03/01 00:00:19;;;;;;;55.55;21.73;;;;;;;0.55;100.00;95147.16;1034690;28;20101;-64
2024/03/01 00:00:49;;;;;;;48.67;22.33;;;;;;;0.54;100.00;95148.94;1037932;28;20493;-64
2024/03/01 00:01:20;;;;;;;54.03;23.75;;;;;;;0.55;100.00;95150.50;1034759;28;20026;-64
2024/03/01 00:01:50;;;;;;;54.33;22.33;;;;;;;0.54;100.00;95143.78;1034659;28;20710;-64
2024/03/01 00:02:21;;;;;;;55.42;21.33;;;;;;;0.55;100.00;95144.56;1036214;28;20017;-62
2024/03/01 00:02:51;;;;;;;53.72;22.40;;;;;;;0.55;100.00;95145.34;1038718;28;20022;-64
2024/03/01 00:03:22;;;;;;;56.20;22.30;;;;;;;0.58;100.00;95150.09;1039247;28;20051;-64
2024/03/01 00:03:52;;;;;;;54.20;22.77;;;;;;;0.59;100.00;95150.88;1039050;28;20489;-65
2024/03/01 00:04:23;;;;;;;56.85;23.67;;;;;;;0.59;100.00;95150.88;1038960;28;20045;-65
2024/03/01 00:04:53;;;;;;;55.20;23.17;;;;;;;0.60;100.00;95150.66;1034535;28;20111;-65
2024/03/01 00:05:24;;;;;;;53.28;22.00;;;;;;;0.59;100.00;95141.34;1034922;28;20038;-65
2024/03/01 00:05:55;;;;;;;53.05;22.45;;;;;;;0.59;100.00;95143.91;1038469;28;20044;-65
2024/03/01 00:06:25;;;;;;;55.05;23.33;;;;;;;0.60;100.00;95142.91;1043094;28;20651;-65
2024/03/01 00:06:55;;;;;;;52.78;22.08;;;;;;;0.62;100.00;95150.44;1043566;28;20052;-65
2024/03/01 00:07:26;;;;;;;65.68;22.60;;;;;;;0.64;100.00;95151.03;1041265;28;20021;-64
2024/03/01 00:07:57;;;;;;;52.72;22.75;;;;;;;0.64;100.00;95151.81;1034789;28;20037;-64
2024/03/01 00:08:27;;;;;;;53.78;22.65;;;;;;;0.67;100.00;95151.41;1035211;28;20030;-65
2024/03/01 00:08:58;;;;;;;51.95;21.80;;;;;;;0.67;100.00;95148.81;1034675;28;20053;-64
2024/03/01 00:09:28;;;;;;;52.45;20.90;;;;;;;0.68;100.00;95155.53;1035354;28;20482;-65
2024/03/01 00:09:59;;;;;;;50.50;20.90;;;;;;;0.69;100.00;95146.78;1039349;28;20025;-64
2024/03/01 00:10:29;;;;;;;53.35;22.20;;;;;;;0.72;100.00;95155.13;1038862;28;20033;-64
2024/03/01 00:11:00;;;;;;;53.78;21.40;;;;;;;0.74;100.00;95153.09;1039114;28;20036;-64
2024/03/01 00:11:31;;;;;;;49.42;21.95;;;;;;;0.60;100.00;95132.56;1039482;28;20059;-65
2024/03/01 00:12:05;;;;;;;54.92;21.48;;;;;;;0.76;100.00;95156.25;1034978;28;20037;-63
2024/03/01 00:12:35;;;;;;;53.55;21.55;;;;;;;0.74;100.00;95153.09;1034836;28;20285;-64
2024/03/01 00:13:05;;;;;;;62.65;22.63;;;;;;;0.74;100.00;95153.91;1034978;28;20257;-65
2024/03/01 00:13:36;;;;;;;53.55;22.50;;;;;;;0.73;100.00;95156.69;1031704;28;20038;-64
2024/03/01 00:14:07;;;;;;;51.10;21.75;;;;;;;0.74;100.00;95148.75;1034974;28;20048;-63
2024/03/01 00:14:37;;;;;;;51.50;21.08;;;;;;;0.74;100.00;95153.09;1030933;28;20030;-65
2024/03/01 00:15:08;;;;;;;50.00;22.20;;;;;;;0.74;100.00;95151.31;1031230;28;20030;-65
2024/03/01 00:15:39;;;;;;;43.78;21.17;;;;;;;0.75;100.00;95150.31;1034827;28;20084;-63
2024/03/01 00:16:10;;;;;;;52.75;22.58;;;;;;;0.76;100.00;95140.78;1039236;28;20264;-65
2024/03/01 00:16:40;;;;;;;48.95;21.50;;;;;;;0.77;100.00;95142.34;1038680;28;20420;-65
2024/03/01 00:17:10;;;;;;;50.97;22.85;;;;;;;0.75;100.00;95144.38;1038659;28;20120;-63
2024/03/01 00:17:41;;;;;;;54.00;22.75;;;;;;;0.78;100.00;95143.94;1037478;28;20516;-65
2024/03/01 00:18:11;;;;;;;48.85;21.80;;;;;;;0.78;100.00;95146.50;1038943;28;20029;-63
2024/03/01 00:18:42;;;;;;;56.83;22.55;;;;;;;0.80;100.00;95147.06;1042819;28;20032;-65
2024/03/01 00:19:13;;;;;;;49.78;21.88;;;;;;;0.81;100.00;95143.50;1041353;28;20508;-64
2024/03/01 00:19:43;;;;;;;55.47;22.38;;;;;;;0.82;100.00;95139.91;1038745;28;20272;-65
2024/03/01 00:20:14;;;;;;;55.70;22.52;;;;;;;0.84;100.00;95145.63;1038686;28;20405;-64
2024/03/01 00:20:44;;;;;;;48.45;20.85;;;;;;;0.85;100.00;95139.47;1038475;28;20083;-64
2024/03/01 00:21:18;;;;;;;62.60;23.73;;;;;;;0.85;100.00;95140.25;1038770;28;20026;-64
2024/03/01 00:21:48;;;;;;;50.35;20.73;;;;;;;0.87;100.00;95137.44;1038828;28;20025;-64
2024/03/01 00:22:19;;;;;;;52.17;22.95;;;;;;;0.88;100.00;95139.84;1038638;28;20279;-65
2024/03/01 00:22:52;;;;;;;46.63;21.50;;;;;;;0.91;100.00;95138.63;1035034;28;20485;-65
2024/03/01 00:23:22;;;;;;;50.83;20.65;;;;;;;0.93;100.00;95141.75;1039104;28;20042;-65
2024/03/01 00:23:53;;;;;;;49.42;23.10;;;;;;;0.91;100.00;95131.66;1038492;28;20268;-65
2024/03/01 00:24:23;;;;;;;52.58;20.10;;;;;;;0.89;100.00;95136.25;1038676;28;20037;-64
2024/03/01 00:24:54;;;;;;;55.15;21.73;;;;;;;0.90;100.00;95137.81;1039221;28;20403;-64
2024/03/01 00:25:24;;;;;;;52.30;22.60;;;;;;;0.90;100.00;95135.22;1039222;28;20033;-64
2024/03/01 00:25:55;;;;;;;55.33;21.92;;;;;;;0.91;100.00;95126.50;1039301;28;20033;-66
2024/03/01 00:26:25;;;;;;;52.22;21.23;;;;;;;0.90;100.00;95127.47;1039112;28;20025;-64
2024/03/01 00:26:56;;;;;;;48.88;22.17;;;;;;;0.92;100.00;95132.44;1034775;28;20038;-64
2024/03/01 00:27:26;;;;;;;47.47;20.65;;;;;;;0.91;100.00;95131.66;1038971;28;20078;-64
2024/03/01 00:27:57;;;;;;;52.50;22.23;;;;;;;0.93;100.00;95131.44;1036161;28;20018;-65
2024/03/01 00:28:27;;;;;;;45.03;20.73;;;;;;;0.91;100.00;95130.88;1043103;28;20041;-64
2024/03/01 00:28:58;;;;;;;45.42;21.70;;;;;;;0.93;100.00;95131.44;1043116;28;20033;-64
2024/03/01 00:29:28;;;;;;;54.42;23.33;;;;;;;0.92;100.00;95138.41;1042836;28;20547;-64
2024/03/01 00:29:58;;;;;;;48.92;21.08;;;;;;;0.95;100.00;95129.44;1041313;28;20080;-64
2024/03/01 00:30:29;;;;;;;52.13;21.13;;;;;;;0.96;100.00;95133.56;1042133;28;20029;-64
2024/03/01 00:30:59;;;;;;;51.72;21.63;;;;;;;0.97;100.00;95134.38;1041962;28;20044;-64
2024/03/01 00:31:30;;;;;;;52.13;21.27;;;;;;;0.97;100.00;95129.97;1042939;28;20159;-64
2024/03/01 00:32:00;;;;;;;54.53;20.63;;;;;;;0.97;100.00;95129.97;1041959;28;20029;-62
2024/03/01 00:32:32;;;;;;;53.35;22.88;;;;;;;0.98;100.00;95136.75;1034595;28;20046;-66
2024/03/01 00:33:03;;;;;;;45.17;20.48;;;;;;;0.97;100.00;95129.97;1037858;28;20022;-65
2024/03/01 00:33:34;;;;;;;44.42;21.55;;;;;;;0.97;100.00;95124.81;1041466;28;20260;-64
2024/03/01 00:34:04;;;;;;;46.20;22.85;;;;;;;0.97;100.00;95132.56;1042421;28;20326;-64
2024/03/01 00:34:35;;;;;;;47.45;21.70;;;;;;;0.98;100.00;95129.00;1042800;28;20037;-65
2024/03/01 00:35:06;;;;;;;49.47;21.80;;;;;;;0.98;100.00;95131.56;1042930;28;20516;-64
2024/03/01 00:35:36;;;;;;;51.30;20.75;;;;;;;0.98;100.00;95131.56;1042948;28;20090;-64
2024/03/01 00:36:06;;;;;;;46.22;21.15;;;;;;;1.00;100.00;95134.72;1042713;28;20032;-64
2024/03/01 00:36:37;;;;;;;48.63;21.08;;;;;;;1.00;100.00;95129.56;1043333;28;20025;-66
2024/03/01 00:37:07;;;;;;;43.60;20.77;;;;;;;1.00;100.00;95134.72;1042822;28;20033;-66
2024/03/01 00:37:38;;;;;;;46.38;20.40;;;;;;;1.00;100.00;95132.13;1038934;28;20497;-64
2024/03/01 00:38:11;;;;;;;43.80;19.85;;;;;;;1.00;100.00;95132.13;1038750;28;20108;-66
2024/03/01 00:38:42;;;;;;;49.40;20.30;;;;;;;1.01;100.00;95136.31;1039269;28;20463;-64
2024/03/01 00:39:12;;;;;;;47.53;20.77;;;;;;;1.01;100.00;95138.91;1042608;28;20267;-64
2024/03/01 00:39:43;;;;;;;53.65;21.08;;;;;;;1.00;100.00;95139.88;1043017;28;20424;-64
2024/03/01 00:40:13;;;;;;;48.22;20.52;;;;;;;1.01;100.00;95141.47;1038514;28;20037;-65
2024/03/01 00:40:43;;;;;;;50.45;20.75;;;;;;;1.01;100.00;95135.53;1038382;28;20033;-64
2024/03/01 00:41:14;;;;;;;50.25;21.92;;;;;;;1.01;100.00;95138.91;1038668;28;20514;-66
2024/03/01 00:41:45;;;;;;;48.78;21.63;;;;;;;1.01;100.00;95144.06;1038926;28;20043;-64
2024/03/01 00:42:15;;;;;;;53.08;21.58;;;;;;;1.02;100.00;95142.25;1040203;28;20260;-65
2024/03/01 00:42:46;;;;;;;49.53;20.60;;;;;;;1.03;100.00;95142.03;1042846;28;20044;-64
2024/03/01 00:43:16;;;;;;;41.78;20.65;;;;;;;1.06;100.00;95140.81;1042681;28;20033;-64
2024/03/01 00:43:48;;;;;;;50.65;20.83;;;;;;;1.06;100.00;95146.78;1043069;28;20028;-64
2024/03/01 00:44:19;;;;;;;42.03;20.00;;;;;;;1.07;100.00;95143.16;1042560;28;20520;-64
2024/03/01 00:44:49;;;;;;;47.22;21.27;;;;;;;1.08;100.00;95136.22;1043111;28;20270;-65
2024/03/01 00:45:20;;;;;;;49.20;20.77;;;;;;;1.10;100.00;95142.75;1043486;28;20516;-64
2024/03/01 00:45:51;;;;;;;41.17;20.00;;;;;;;1.10;100.00;95142.75;1040006;28;20087;-63
2024/03/01 00:46:21;;;;;;;51.83;21.17;;;;;;;1.10;100.00;95142.75;1036152;28;20041;-63
2024/03/01 00:46:54;;;;;;;49.30;21.95;;;;;;;1.12;100.00;95135.56;1039972;28;20033;-63
2024/03/01 00:47:25;;;;;;;45.72;19.95;;;;;;;1.15;100.00;95137.72;1040798;28;20088;-64
2024/03/01 00:47:55;;;;;;;43.92;19.83;;;;;;;1.15;100.00;95135.13;1044111;28;20326;-65
2024/03/01 00:48:26;;;;;;;51.00;21.23;;;;;;;1.17;100.00;95137.50;1044002;28;20028;-64
2024/03/01 00:48:56;;;;;;;48.63;20.45;;;;;;;1.12;100.00;95130.41;1035749;28;20074;-64
2024/03/01 00:49:27;;;;;;;49.97;21.13;;;;;;;1.17;100.00;95140.88;1039571;28;20041;-65
2024/03/01 00:49:57;;;;;;;44.33;21.38;;;;;;;1.17;100.00;95143.47;1039487;28;20017;-66
2024/03/01 00:50:28;;;;;;;49.85;19.98;;;;;;;1.14;100.00;95146.50;1032463;28;20073;-64
2024/03/01 00:50:58;;;;;;;48.10;19.95;;;;;;;1.14;100.00;95145.69;1035701;28;20052;-64
2024/03/01 00:51:29;;;;;;;39.83;19.13;;;;;;;1.15;100.00;95145.47;1039605;28;20044;-65
2024/03/01 00:51:59;;;;;;;43.25;20.60;;;;;;;1.13;100.00;95146.69;1038891;28;20029;-64
2024/03/01 00:52:30;;;;;;;44.97;20.83;;;;;;;1.16;100.00;95141.88;1043681;28;20033;-64
2024/03/01 00:53:00;;;;;;;49.58;21.42;;;;;;;1.15;100.00;95149.84;1044084;28;20036;-64
2024/03/01 00:53:31;;;;;;;45.78;19.67;;;;;;;1.16;100.00;95138.50;1043626;28;20033;-62
2024/03/01 00:54:01;;;;;;;48.10;20.73;;;;;;;1.16;100.00;95136.69;1039496;28;20037;-64
2024/03/01 00:54:32;;;;;;;49.25;21.90;;;;;;;1.17;100.00;95134.91;1039836;28;20029;-64
2024/03/01 00:55:02;;;;;;;50.83;21.65;;;;;;;1.17;100.00;95133.13;1039470;28;20029;-64
2024/03/01 00:55:36;;;;;;;46.65;19.50;;;;;;;1.18;100.00;95124.38;1039361;28;20424;-64
2024/03/01 00:56:06;;;;;;;47.72;20.67;;;;;;;1.19;100.00;95135.50;1040216;28;20500;-64
2024/03/01 00:56:37;;;;;;;45.13;20.73;;;;;;;1.17;100.00;95127.97;1039427;28;20268;-64
2024/03/01 00:57:08;;;;;;;43.55;19.95;;;;;;;1.18;100.00;95129.53;1039518;28;20029;-65
2024/03/01 00:57:38;;;;;;;43.28;20.30;;;;;;;1.17;100.00;95127.16;1039444;28;20057;-64
2024/03/01 00:58:08;;;;;;;51.22;21.38;;;;;;;1.21;100.00;95130.09;1039533;28;20592;-63
2024/03/01 00:58:39;;;;;;;47.30;19.20;;;;;;;1.22;100.00;95129.09;1039770;28;20036;-64
2024/03/01 00:59:09;;;;;;;50.30;21.15;;;;;;;1.25;100.00;95133.84;1039787;28;20029;-65
2024/03/01 00:59:41;;;;;;;43.55;19.77;;;;;;;1.25;100.00;95126.09;1039441;28;20036;-64
2024/03/01 01:00:12;;;;;;;42.65;19.00;;;;;;;1.25;100.00;95133.84;1035525;28;20060;-66
2024/03/01 01:00:42;;;;;;;49.67;20.98;;;;;;;1.23;100.00;95133.25;1034761;28;20355;-64
2024/03/01 01:01:13;;;;;;;48.28;20.55;;;;;;;1.17;100.00;95122.81;1035669;28;20053;-64
2024/03/01 01:01:43;;;;;;;48.08;19.90;;;;;;;1.17;100.00;95132.31;1035599;28;20037;-64
2024/03/01 01:02:14;;;;;;;42.85;20.13;;;;;;;1.18;100.00;95134.69;1035273;28;20084;-66
2024/03/01 01:02:44;;;;;;;50.28;20.45;;;;;;;1.20;100.00;95131.09;1035687;28;20502;-64
2024/03/01 01:03:14;;;;;;;48.72;20.92;;;;;;;1.22;100.00;95129.09;1035485;28;20034;-65
2024/03/01 01:03:45;;;;;;;40.78;18.73;;;;;;;1.24;100.00;95132.25;1035352;28;20037;-62
2024/03/01 01:04:16;;;;;;;43.50;19.60;;;;;;;1.20;100.00;95125.94;1035373;28;20493;-64
2024/03/01 01:04:46;;;;;;;49.58;19.75;;;;;;;1.25;100.00;95133.84;1031436;28;20034;-64
2024/03/01 01:05:17;;;;;;;49.83;20.67;;;;;;;1.27;100.00;95140.34;1034241;28;20036;-64
2024/03/01 01:05:48;;;;;;;57.20;20.77;;;;;;;1.22;100.00;95135.06;1042430;28;20029;-65
2024/03/01 01:06:18;;;;;;;45.15;21.45;;;;;;;1.22;100.00;95132.47;1043334;28;20263;-64
2024/03/01 01:06:49;;;;;;;41.90;20.30;;;;;;;1.20;100.00;95131.09;1039865;28;20556;-64
2024/03/01 01:07:19;;;;;;;46.15;20.30;;;;;;;1.22;100.00;95136.84;1039599;28;20028;-65
2024/03/01 01:07:50;;;;;;;46.10;19.65;;;;;;;1.22;100.00;95136.84;1039508;28;20033;-65
2024/03/01 01:08:21;;;;;;;42.45;18.50;;;;;;;1.24;100.00;95132.25;1039639;28;20691;-64
2024/03/01 01:08:52;;;;;;;43.10;19.55;;;;;;;1.26;100.00;95127.66;1039326;28;20256;-62
2024/03/01 01:09:22;;;;;;;50.88;19.98;;;;;;;1.21;100.00;95133.50;1035394;28;20034;-65
2024/03/01 01:09:53;;;;;;;48.20;20.95;;;;;;;1.24;100.00;95138.22;1035350;28;20253;-64
2024/03/01 01:10:23;;;;;;;44.95;20.55;;;;;;;1.25;100.00;95128.66;1031243;28;20113;-65
2024/03/01 01:10:54;;;;;;;44.75;20.35;;;;;;;1.26;100.00;95133.59;1029942;28;20033;-66
2024/03/01 01:11:24;;;;;;;44.53;20.17;;;;;;;1.25;100.00;95128.66;1039487;28;20096;-64
2024/03/01 01:11:56;;;;;;;50.72;20.45;;;;;;;1.24;100.00;95129.66;1035403;28;20483;-64
2024/03/01 01:12:26;;;;;;;47.63;19.88;;;;;;;1.18;100.00;95132.13;1035697;28;20029;-64
2024/03/01 01:12:57;;;;;;;46.08;21.17;;;;;;;1.17;100.00;95130.56;1039381;28;20636;-64
2024/03/01 01:13:27;;;;;;;43.55;20.80;;;;;;;1.17;100.00;95122.00;1035797;28;20485;-66
2024/03/01 01:13:58;;;;;;;42.75;20.50;;;;;;;1.16;100.00;95123.78;1035252;28;20018;-66
2024/03/01 01:14:29;;;;;;;42.38;19.05;;;;;;;1.20;100.00;95120.78;1031409;28;20026;-64
2024/03/01 01:14:59;;;;;;;41.95;19.25;;;;;;;1.22;100.00;95121.34;1031750;28;20019;-65
2024/03/01 01:15:30;;;;;;;40.40;20.25;;;;;;;1.22;100.00;95118.75;1027430;28;20160;-64
2024/03/01 01:16:00;;;;;;;41.88;19.15;;;;;;;1.23;100.00;95115.16;1031253;28;20029;-65
2024/03/01 01:16:31;;;;;;;36.78;17.98;;;;;;;1.23;100.00;95120.34;1031392;28;20030;-63
2024/03/01 01:17:01;;;;;;;40.33;19.92;;;;;;;1.25;100.00;95113.16;1027383;28;20397;-65
2024/03/01 01:17:32;;;;;;;45.58;18.65;;;;;;;1.26;100.00;95119.91;1035359;28;20408;-65
2024/03/01 01:18:02;;;;;;;38.00;19.23;;;;;;;1.27;100.00;95117.09;1035383;28;20022;-64
2024/03/01 01:18:33;;;;;;;36.15;18.02;;;;;;;1.27;100.00;95111.13;1039391;28;20021;-65
2024/03/01 01:19:03;;;;;;;35.75;19.08;;;;;;;1.28;100.00;95125.66;1039887;28;20076;-63
2024/03/01 01:19:34;;;;;;;40.20;18.95;;;;;;;1.31;100.00;95113.06;1039653;28;20018;-65
2024/03/01 01:20:05;;;;;;;43.20;19.23;;;;;;;1.28;100.00;95113.50;1039302;28;20053;-63
2024/03/01 01:20:36;;;;;;;39.45;19.08;;;;;;;1.28;100.00;95112.72;1038947;28;20700;-64
2024/03/01 01:21:06;;;;;;;41.95;19.50;;;;;;;1.26;100.00;95117.31;1039416;28;20264;-64
2024/03/01 01:21:37;;;;;;;40.28;18.48;;;;;;;1.26;100.00;95115.50;1035635;28;20097;-65
2024/03/01 01:22:07;;;;;;;42.83;18.20;;;;;;;1.28;100.00;95112.72;1039484;28;20713;-64
2024/03/01 01:22:38;;;;;;;43.75;19.38;;;;;;;1.31;100.00;95112.28;1035116;28;20030;-64
2024/03/01 01:23:09;;;;;;;40.65;20.02;;;;;;;1.29;100.00;95109.91;1031350;28;20081;-64
2024/03/01 01:23:39;;;;;;;43.15;19.23;;;;;;;1.30;100.00;95114.06;1027138;28;20046;-64
2024/03/01 01:24:10;;;;;;;35.30;18.20;;;;;;;1.29;100.00;95111.72;1027103;28;20449;-64
2024/03/01 01:24:40;;;;;;;38.63;18.38;;;;;;;1.29;100.00;95109.13;1031587;28;20065;-65
2024/03/01 01:25:11;;;;;;;38.97;17.50;;;;;;;1.29;100.00;95114.28;1039485;28;20056;-63
2024/03/01 01:25:42;;;;;;;38.20;18.13;;;;;;;1.27;100.00;95111.13;1039952;28;20026;-64
2024/03/01 01:26:12;;;;;;;42.25;19.25;;;;;;;1.24;100.00;95112.38;1039547;28;20025;-65
2024/03/01 01:26:43;;;;;;;34.70;19.25;;;;;;;1.28;100.00;95104.97;1039413;28;20034;-63
2024/03/01 01:27:13;;;;;;;37.15;17.05;;;;;;;1.26;100.00;95107.75;1039369;28;20029;-64
2024/03/01 01:27:44;;;;;;;36.13;18.00;;;;;;;1.26;100.00;95101.81;1039121;28;20122;-64
2024/03/01 01:28:14;;;;;;;38.35;18.10;;;;;;;1.25;100.00;95103.63;1039090;28;20056;-64
2024/03/01 01:28:45;;;;;;;45.55;19.25;;;;;;;1.24;100.00;95104.63;1039612;28;20113;-65
2024/03/01 01:29:16;;;;;;;40.72;18.00;;;;;;;1.23;100.00;95102.25;1039024;28;20259;-63
2024/03/01 01:29:46;;;;;;;41.72;18.80;;;;;;;1.19;100.00;95104.47;1039748;28;20124;-65
2024/03/01 01:30:17;;;;;;;38.90;18.48;;;;;;;1.15;100.00;95095.59;1039574;28;20029;-63
2024/03/01 01:30:47;;;;;;;37.50;17.95;;;;;;;1.14;100.00;95102.56;1039395;28;20091;-65
2024/03/01 01:31:18;;;;;;;41.17;17.80;;;;;;;1.14;100.00;95102.56;1039654;28;20037;-65
2024/03/01 01:31:49;;;;;;;45.30;18.48;;;;;;;1.14;100.00;95105.16;1039740;28;20374;-64
2024/03/01 01:32:19;;;;;;;42.72;19.35;;;;;;;1.10;100.00;95096.25;1039356;28;20298;-64
2024/03/01 01:32:50;;;;;;;32.88;18.00;;;;;;;1.08;100.00;95108.59;1039723;28;20036;-65
2024/03/01 01:33:20;;;;;;;40.20;18.52;;;;;;;1.07;100.00;95098.47;1035156;28;20034;-63
2024/03/01 01:33:51;;;;;;;50.03;19.75;;;;;;;1.04;100.00;95106.66;1033398;28;20490;-63
2024/03/01 01:34:24;;;;;;;46.58;20.33;;;;;;;1.02;100.00;95099.13;1035219;28;20099;-62
2024/03/01 01:34:54;;;;;;;50.75;22.23;;;;;;;1.00;100.00;95103.72;1039257;28;20021;-66
2024/03/01 01:35:25;;;;;;;58.33;21.75;;;;;;;0.97;100.00;95106.72;1040051;28;20378;-64
2024/03/01 01:35:55;;;;;;;52.30;20.73;;;;;;;0.97;100.00;95100.78;1035626;28;20042;-65
2024/03/01 01:36:26;;;;;;;50.13;20.77;;;;;;;0.93;100.00;95105.59;1035190;28;20033;-65
2024/03/01 01:36:56;;;;;;;42.75;20.58;;;;;;;0.90;100.00;95098.28;1035423;28;20072;-65
2024/03/01 01:37:27;;;;;;;49.38;20.65;;;;;;;0.84;100.00;95104.31;1035428;28;20030;-65
2024/03/01 01:37:57;;;;;;;46.97;21.67;;;;;;;0.79;100.00;95099.03;1037457;28;20067;-66
2024/03/01 01:38:28;;;;;;;44.20;20.45;;;;;;;0.80;100.00;95098.78;1031265;28;20060;-64
2024/03/01 01:38:58;;;;;;;55.08;20.83;;;;;;;0.78;100.00;95102.63;1035227;28;20042;-65
2024/03/01 01:39:29;;;;;;;47.63;20.80;;;;;;;0.78;100.00;95103.41;1031466;28;20033;-65
2024/03/01 01:40:00;;;;;;;51.58;21.75;;;;;;;0.77;100.00;95099.25;1031347;28;20050;-65
2024/03/01 01:40:30;;;;;;;50.97;20.55;;;;;;;0.78;100.00;95097.47;1034593;28;20049;-65
2024/03/01 01:41:01;;;;;;;46.08;20.67;;;;;;;0.78;100.00;95105.19;1031584;28;20489;-62
2024/03/01 01:41:32;;;;;;;49.42;20.48;;;;;;;0.79;100.00;95099.03;1031161;28;20089;-62
2024/03/01 01:42:03;;;;;;;44.13;19.70;;;;;;;0.80;100.00;95100.59;1035340;28;20022;-64
2024/03/01 01:42:33;;;;;;;47.72;21.00;;;;;;;0.77;100.00;95094.09;1035435;28;20272;-65
2024/03/01 01:43:05;;;;;;;50.22;20.45;;;;;;;0.61;100.00;95072.22;1039202;28;20481;-64
2024/03/01 01:43:37;;;;;;;50.05;19.60;;;;;;;0.76;100.00;95100.25;1039550;28;20547;-65
2024/03/01 01:44:08;;;;;;;47.00;19.33;;;;;;;0.78;100.00;95097.47;1039211;28;20315;-64
2024/03/01 01:44:38;;;;;;;46.83;20.83;;;;;;;0.78;100.00;95097.47;1039473;28;20715;-65
2024/03/01 01:45:10;;;;;;;44.70;20.15;;;;;;;0.77;100.00;95101.03;1040183;28;20489;-64
2024/03/01 01:45:41;;;;;;;45.08;19.20;;;;;;;0.75;100.00;95095.31;1040337;28;20021;-64
2024/03/01 01:46:11;;;;;;;41.03;18.60;;;;;;;0.75;100.00;95097.88;1039971;28;20279;-61
2024/03/01 01:46:43;;;;;;;55.75;22.13;;;;;;;0.75;100.00;95097.88;1039871;28;20311;-64
2024/03/01 01:47:14;;;;;;;53.88;21.75;;;;;;;0.76;100.00;95105.41;1039559;28;20021;-66
2024/03/01 01:47:48;;;;;;;63.65;22.58;;;;;;;0.74;100.00;95102.28;1035836;28;20808;-62
2024/03/01 01:48:18;;;;;;;64.57;23.77;;;;;;;0.75;100.00;95100.47;1031174;28;20069;-64
2024/03/01 01:48:49;;;;;;;68.57;21.90;;;;;;;0.74;100.00;95102.28;1027692;28;20765;-64
2024/03/01 01:49:23;;;;;;;62.83;23.35;;;;;;;0.68;100.00;95093.59;1027881;28;20034;-64
2024/03/01 01:49:53;;;;;;;57.58;22.65;;;;;;;0.68;100.00;95093.59;1027849;28;20027;-64
2024/03/01 01:50:26;;;;;;;52.75;20.73;;;;;;;0.67;100.00;95094.59;1029354;28;20782;-64
2024/03/01 01:50:56;;;;;;;56.45;21.83;;;;;;;0.70;100.00;95089.00;1027978;28;20081;-65
2024/03/01 01:51:27;;;;;;;58.10;22.92;;;;;;;0.72;100.00;95095.75;1031513;28;20599;-64
2024/03/01 01:51:57;;;;;;;65.18;23.92;;;;;;;0.74;100.00;95093.72;1035585;28;20517;-64
2024/03/01 01:52:28;;;;;;;64.82;23.73;;;;;;;0.73;100.00;95092.13;1039443;28;20079;-64
2024/03/01 01:52:58;;;;;;;76.75;23.42;;;;;;;0.74;100.00;95096.28;1039437;28;20105;-65
2024/03/01 01:53:29;;;;;;;79.78;28.58;;;;;;;0.77;100.00;95090.69;1035223;28;20040;-64
2024/03/01 01:53:59;;;;;;;59.67;22.33;;;;;;;0.77;100.00;95077.78;1034491;28;20026;-64
2024/03/01 01:54:30;;;;;;;61.45;24.05;;;;;;;0.76;100.00;95087.34;1031527;28;20034;-64
2024/03/01 01:55:00;;;;;;;56.83;23.35;;;;;;;0.79;100.00;95084.31;1035243;28;20402;-63
2024/03/01 01:55:31;;;;;;;64.15;24.80;;;;;;;0.78;100.00;95087.91;1035064;28;20095;-62
2024/03/01 01:56:01;;;;;;;64.63;23.63;;;;;;;0.78;100.00;95082.75;1039664;28;20036;-63
2024/03/01 01:56:32;;;;;;;63.78;23.15;;;;;;;0.77;100.00;95088.13;1043179;28;20029;-64
2024/03/01 01:57:02;;;;;;;66.93;23.73;;;;;;;0.77;100.00;95091.50;1042355;28;20088;-65
2024/03/01 01:57:33;;;;;;;80.45;26.83;;;;;;;0.75;100.00;95093.50;1039422;28;21176;-64
2024/03/01 01:58:03;;;;;;;73.57;25.70;;;;;;;0.79;100.00;95086.91;1039269;28;20033;-65
2024/03/01 01:58:34;;;;;;;73.45;26.85;;;;;;;0.78;100.00;95076.81;1039344;28;20036;-65
2024/03/01 01:59:04;;;;;;;68.90;24.20;;;;;;;0.77;100.00;95090.69;1031003;28;20068;-64
2024/03/01 01:59:36;;;;;;;73.63;25.33;;;;;;;0.75;100.00;95092.72;1031104;28;20026;-65
2024/03/01 02:00:07;;;;;;;64.00;24.25;;;;;;;0.72;100.00;95086.19;1031706;28;20117;-64
2024/03/01 02:00:38;;;;;;;67.22;22.35;;;;;;;0.76;100.00;95081.38;1033354;28;20300;-64
2024/03/01 02:01:09;;;;;;;87.68;24.17;;;;;;;0.73;100.00;95086.97;1043409;28;20271;-64
2024/03/01 02:01:40;;;;;;;75.05;22.17;;;;;;;0.75;100.00;95087.56;1039172;28;20087;-64
2024/03/01 02:02:10;;;;;;;73.25;22.60;;;;;;;0.77;100.00;95088.13;1038112;28;20260;-63
2024/03/01 02:02:42;;;;;;;64.10;22.52;;;;;;;0.76;100.00;95078.81;1035556;28;20279;-63
2024/03/01 02:03:12;;;;;;;70.72;22.08;;;;;;;0.79;100.00;95084.31;1031628;28;20054;-64
2024/03/01 02:03:43;;;;;;;72.85;22.73;;;;;;;0.79;100.00;95080.94;1035094;28;20261;-65
2024/03/01 02:04:13;;;;;;;65.28;21.75;;;;;;;0.76;100.00;95078.81;1027198;28;20035;-64
2024/03/01 02:04:44;;;;;;;58.25;22.70;;;;;;;0.77;100.00;95072.63;1031329;28;20482;-64
2024/03/01 02:05:14;;;;;;;58.35;22.98;;;;;;;0.82;100.00;95077.94;1035292;28;20045;-65
2024/03/01 02:05:45;;;;;;;75.30;25.73;;;;;;;0.83;100.00;95079.50;1037551;28;20033;-64
2024/03/01 02:06:15;;;;;;;83.65;23.63;;;;;;;0.83;100.00;95076.91;1043501;28;20041;-64
2024/03/01 02:06:46;;;;;;;72.57;23.55;;;;;;;0.81;100.00;95077.16;1043867;28;20037;-64
2024/03/01 02:07:16;;;;;;;62.38;23.75;;;;;;;0.83;100.00;95072.53;1042295;28;20435;-64
2024/03/01 02:07:47;;;;;;;89.15;23.73;;;;;;;0.81;100.00;95072.00;1035019;28;20022;-63
2024/03/01 02:08:18;;;;;;;78.88;22.38;;;;;;;0.84;100.00;95075.91;1023125;29;20027;-65
2024/03/01 02:08:48;;;;;;;70.05;23.55;;;;;;;0.86;100.00;95081.66;1023034;29;20027;-63
2024/03/01 02:09:19;;;;;;;86.47;24.30;;;;;;;0.84;100.00;95078.50;1026685;28;20097;-64
2024/03/01 02:09:50;;;;;;;94.65;24.38;;;;;;;0.81;100.00;95078.94;1035275;28;20109;-65
2024/03/01 02:10:22;;;;;;;79.47;24.25;;;;;;;0.79;100.00;95078.38;1039252;28;20021;-65
2024/03/01 02:10:55;;;;;;;76.25;23.85;;;;;;;0.81;100.00;95079.72;1034536;28;20352;-65
2024/03/01 02:11:26;;;;;;;98.53;25.73;;;;;;;0.83;100.00;95079.50;1035036;28;20297;-65
2024/03/01 02:11:56;;;;;;;87.30;26.02;;;;;;;0.84;100.00;95075.91;1035748;28;20296;-64
2024/03/01 02:12:27;;;;;;;100.80;26.58;;;;;;;0.79;100.00;95078.38;1039321;28;20646;-65
2024/03/01 02:12:58;;;;;;;83.15;24.70;;;;;;;0.82;100.00;95072.78;1035135;28;20105;-64
2024/03/01 02:13:29;;;;;;;90.68;24.73;;;;;;;0.81;100.00;95076.38;1037449;28;20119;-64
2024/03/01 02:14:00;;;;;;;102.38;24.50;;;;;;;0.79;100.00;95068.81;1038904;28;20728;-65
2024/03/01 02:14:30;;;;;;;64.80;23.10;;;;;;;0.81;100.00;95068.63;1034490;28;20149;-65
2024/03/01 02:15:01;;;;;;;60.67;22.42;;;;;;;0.85;100.00;95067.19;1040059;28;20064;-63
2024/03/01 02:15:32;;;;;;;68.93;23.13;;;;;;;0.87;100.00;95063.38;1043225;28;20055;-66
2024/03/01 02:16:02;;;;;;;59.53;21.20;;;;;;;0.87;100.00;95062.56;1040682;28;20053;-65
2024/03/01 02:16:33;;;;;;;55.08;20.83;;;;;;;0.91;100.00;95061.16;1043301;28;20025;-65
2024/03/01 02:17:04;;;;;;;59.85;23.05;;;;;;;0.94;100.00;95060.72;1043361;28;20128;-64
2024/03/01 02:17:34;;;;;;;70.38;23.48;;;;;;;0.96;100.00;95063.06;1043272;28;20023;-65
2024/03/01 02:18:05;;;;;;;76.13;23.95;;;;;;;0.94;100.00;95058.91;1042936;28;20060;-64
2024/03/01 02:18:35;;;;;;;68.13;23.83;;;;;;;0.98;100.00;95059.25;1043512;28;20634;-64
2024/03/01 02:19:17;;;;;;;62.15;24.27;;;;;;;1.00;100.00;95059.03;1043789;28;20476;-64
2024/03/01 02:19:48;;;;;;;114.53;26.42;;;;;;;1.01;100.00;95058.81;1043178;28;20009;-64
2024/03/01 02:20:19;;;;;;;75.80;24.42;;;;;;;1.03;100.00;95053.44;1043187;28;20251;-65
2024/03/01 02:21:06;;;;;;;81.93;25.33;;;;;;;1.06;100.00;95055.56;1042695;28;20025;-65
2024/03/01 02:21:37;;;;;;;93.00;26.17;;;;;;;1.11;100.00;95055.72;1043178;28;20264;-65